sensor_id;sensor_type;location;lat;lon;timestamp;P1;durP1;ratioP1;P2;durP2;ratioP2
74674;SDS011;63200;48.810;12.352;2023-05-27T00:01:30;10.20;;;6.78;;
74674;SDS011;63200;48.810;12.352;2023-05-27T00:03:55;7.22;;;6.50;;
74674;SDS011;63200;48.810;12.352;2023-05-27T00:06:20;11.43;;;7.35;;
74674;SDS011;63200;48.810;12.352;2023-05-27T00:08:46;11.57;;;6.90;;
74674;SDS011;63200;48.810;12.352;2023-05-27T00:11:11;13.95;;;7.30;;
74674;SDS011;63200;48.810;12.352;2023-05-27T00:13:36;12.23;;;6.80;;
74674;SDS011;63200;48.810;12.352;2023-05-27T00:16:03;8.93;;;6.88;;
74674;SDS011;63200;48.810;12.352;2023-05-27T00:18:28;10.02;;;6.70;;
74674;SDS011;63200;48.810;12.352;2023-05-27T00:20:53;11.20;;;6.70;;
74674;SDS011;63200;48.810;12.352;2023-05-27T00:23:19;12.35;;;7.22;;
74674;SDS011;63200;48.810;12.352;2023-05-27T00:25:45;16.58;;;6.30;;
74674;SDS011;63200;48.810;12.352;2023-05-27T00:28:12;8.57;;;6.30;;
74674;SDS011;63200;48.810;12.352;2023-05-27T00:30:37;10.77;;;6.10;;
74674;SDS011;63200;48.810;12.352;2023-05-27T00:33:02;7.90;;;6.50;;
74674;SDS011;63200;48.810;12.352;2023-05-27T00:35:28;11.60;;;6.18;;
74674;SDS011;63200;48.810;12.352;2023-05-27T00:37:54;11.07;;;6.40;;
74674;SDS011;63200;48.810;12.352;2023-05-27T00:40:20;12.95;;;6.32;;
74674;SDS011;63200;48.810;12.352;2023-05-27T00:42:47;8.57;;;6.53;;
74674;SDS011;63200;48.810;12.352;2023-05-27T00:45:13;11.90;;;6.57;;
74674;SDS011;63200;48.810;12.352;2023-05-27T00:47:38;8.95;;;5.85;;
74674;SDS011;63200;48.810;12.352;2023-05-27T00:50:04;9.38;;;6.18;;
74674;SDS011;63200;48.810;12.352;2023-05-27T00:52:30;9.30;;;6.78;;
74674;SDS011;63200;48.810;12.352;2023-05-27T00:54:56;12.88;;;7.20;;
74674;SDS011;63200;48.810;12.352;2023-05-27T00:57:22;11.77;;;6.93;;
74674;SDS011;63200;48.810;12.352;2023-05-27T00:59:48;11.45;;;6.20;;
74674;SDS011;63200;48.810;12.352;2023-05-27T01:02:13;10.27;;;6.18;;
74674;SDS011;63200;48.810;12.352;2023-05-27T01:04:39;10.32;;;6.68;;
74674;SDS011;63200;48.810;12.352;2023-05-27T01:07:14;9.48;;;6.10;;
74674;SDS011;63200;48.810;12.352;2023-05-27T01:12:47;10.50;;;6.50;;
74674;SDS011;63200;48.810;12.352;2023-05-27T01:15:17;12.82;;;6.35;;
74674;SDS011;63200;48.810;12.352;2023-05-27T01:17:44;10.68;;;6.57;;
74674;SDS011;63200;48.810;12.352;2023-05-27T01:20:11;10.43;;;6.10;;
74674;SDS011;63200;48.810;12.352;2023-05-27T01:22:39;15.80;;;6.82;;
74674;SDS011;63200;48.810;12.352;2023-05-27T01:25:07;7.32;;;6.15;;
74674;SDS011;63200;48.810;12.352;2023-05-27T01:27:33;11.70;;;6.75;;
74674;SDS011;63200;48.810;12.352;2023-05-27T01:29:58;11.90;;;6.43;;
74674;SDS011;63200;48.810;12.352;2023-05-27T01:32:41;10.63;;;6.28;;
74674;SDS011;63200;48.810;12.352;2023-05-27T01:35:11;8.55;;;6.22;;
74674;SDS011;63200;48.810;12.352;2023-05-27T01:37:42;12.18;;;6.97;;
74674;SDS011;63200;48.810;12.352;2023-05-27T01:40:10;9.93;;;6.50;;
74674;SDS011;63200;48.810;12.352;2023-05-27T01:42:38;9.20;;;6.15;;
74674;SDS011;63200;48.810;12.352;2023-05-27T01:45:05;10.88;;;6.18;;
74674;SDS011;63200;48.810;12.352;2023-05-27T01:47:32;12.90;;;6.38;;
74674;SDS011;63200;48.810;12.352;2023-05-27T01:49:58;12.45;;;6.53;;
74674;SDS011;63200;48.810;12.352;2023-05-27T01:52:23;11.05;;;6.25;;
74674;SDS011;63200;48.810;12.352;2023-05-27T01:54:48;10.20;;;6.57;;
74674;SDS011;63200;48.810;12.352;2023-05-27T01:57:14;9.32;;;6.15;;
74674;SDS011;63200;48.810;12.352;2023-05-27T01:59:39;9.02;;;6.18;;
74674;SDS011;63200;48.810;12.352;2023-05-27T02:02:05;9.98;;;6.03;;
74674;SDS011;63200;48.810;12.352;2023-05-27T02:04:31;8.70;;;6.20;;
74674;SDS011;63200;48.810;12.352;2023-05-27T02:06:56;8.95;;;6.50;;
74674;SDS011;63200;48.810;12.352;2023-05-27T02:09:21;12.82;;;6.80;;
74674;SDS011;63200;48.810;12.352;2023-05-27T02:11:47;11.10;;;6.82;;
74674;SDS011;63200;48.810;12.352;2023-05-27T02:14:12;13.70;;;6.30;;
74674;SDS011;63200;48.810;12.352;2023-05-27T02:16:38;9.52;;;6.40;;
74674;SDS011;63200;48.810;12.352;2023-05-27T02:19:04;9.32;;;6.00;;
74674;SDS011;63200;48.810;12.352;2023-05-27T02:21:30;11.57;;;6.57;;
74674;SDS011;63200;48.810;12.352;2023-05-27T02:23:55;8.90;;;6.85;;
74674;SDS011;63200;48.810;12.352;2023-05-27T02:26:20;8.77;;;6.53;;
74674;SDS011;63200;48.810;12.352;2023-05-27T02:28:46;8.48;;;6.45;;
74674;SDS011;63200;48.810;12.352;2023-05-27T02:31:12;9.77;;;6.70;;
74674;SDS011;63200;48.810;12.352;2023-05-27T02:33:37;10.38;;;6.05;;
74674;SDS011;63200;48.810;12.352;2023-05-27T02:36:02;9.38;;;6.45;;
74674;SDS011;63200;48.810;12.352;2023-05-27T02:38:28;9.13;;;6.45;;
74674;SDS011;63200;48.810;12.352;2023-05-27T02:40:53;8.85;;;6.43;;
74674;SDS011;63200;48.810;12.352;2023-05-27T02:43:18;9.57;;;6.40;;
74674;SDS011;63200;48.810;12.352;2023-05-27T02:45:44;10.88;;;7.25;;
74674;SDS011;63200;48.810;12.352;2023-05-27T02:48:09;10.38;;;6.13;;
74674;SDS011;63200;48.810;12.352;2023-05-27T02:50:34;11.80;;;6.60;;
74674;SDS011;63200;48.810;12.352;2023-05-27T02:53:00;11.30;;;7.68;;
74674;SDS011;63200;48.810;12.352;2023-05-27T02:55:25;10.85;;;7.20;;
74674;SDS011;63200;48.810;12.352;2023-05-27T02:57:50;11.30;;;6.38;;
74674;SDS011;63200;48.810;12.352;2023-05-27T03:00:15;11.07;;;6.40;;
74674;SDS011;63200;48.810;12.352;2023-05-27T03:02:42;10.50;;;6.78;;
74674;SDS011;63200;48.810;12.352;2023-05-27T03:05:07;9.02;;;6.20;;
74674;SDS011;63200;48.810;12.352;2023-05-27T03:07:33;9.93;;;6.10;;
74674;SDS011;63200;48.810;12.352;2023-05-27T03:09:58;11.18;;;6.20;;
74674;SDS011;63200;48.810;12.352;2023-05-27T03:12:23;14.48;;;6.47;;
74674;SDS011;63200;48.810;12.352;2023-05-27T03:14:49;12.60;;;6.43;;
74674;SDS011;63200;48.810;12.352;2023-05-27T03:17:15;12.88;;;6.47;;
74674;SDS011;63200;48.810;12.352;2023-05-27T03:19:41;8.07;;;5.53;;
74674;SDS011;63200;48.810;12.352;2023-05-27T03:22:07;10.00;;;6.00;;
74674;SDS011;63200;48.810;12.352;2023-05-27T03:24:34;8.48;;;5.60;;
74674;SDS011;63200;48.810;12.352;2023-05-27T03:27:00;7.63;;;5.70;;
74674;SDS011;63200;48.810;12.352;2023-05-27T03:29:26;12.13;;;5.68;;
74674;SDS011;63200;48.810;12.352;2023-05-27T03:31:51;8.68;;;5.50;;
74674;SDS011;63200;48.810;12.352;2023-05-27T03:34:17;8.63;;;6.18;;
74674;SDS011;63200;48.810;12.352;2023-05-27T03:36:42;7.30;;;5.68;;
74674;SDS011;63200;48.810;12.352;2023-05-27T03:39:10;9.52;;;6.22;;
74674;SDS011;63200;48.810;12.352;2023-05-27T03:41:36;12.25;;;6.47;;
74674;SDS011;63200;48.810;12.352;2023-05-27T03:44:02;8.75;;;6.03;;
74674;SDS011;63200;48.810;12.352;2023-05-27T03:46:27;9.70;;;6.70;;
74674;SDS011;63200;48.810;12.352;2023-05-27T03:48:52;14.20;;;6.80;;
74674;SDS011;63200;48.810;12.352;2023-05-27T03:51:20;9.88;;;5.95;;
74674;SDS011;63200;48.810;12.352;2023-05-27T03:53:45;12.23;;;5.90;;
74674;SDS011;63200;48.810;12.352;2023-05-27T03:56:11;12.70;;;6.05;;
74674;SDS011;63200;48.810;12.352;2023-05-27T03:58:36;9.55;;;6.47;;
74674;SDS011;63200;48.810;12.352;2023-05-27T04:01:01;10.48;;;6.38;;
74674;SDS011;63200;48.810;12.352;2023-05-27T04:03:27;9.93;;;6.55;;
74674;SDS011;63200;48.810;12.352;2023-05-27T04:05:53;10.45;;;6.45;;
74674;SDS011;63200;48.810;12.352;2023-05-27T04:08:21;12.32;;;6.63;;
74674;SDS011;63200;48.810;12.352;2023-05-27T04:10:47;10.68;;;6.18;;
74674;SDS011;63200;48.810;12.352;2023-05-27T04:13:13;13.90;;;6.43;;
74674;SDS011;63200;48.810;12.352;2023-05-27T04:15:38;9.95;;;6.13;;
74674;SDS011;63200;48.810;12.352;2023-05-27T04:18:03;10.70;;;6.05;;
74674;SDS011;63200;48.810;12.352;2023-05-27T04:20:36;10.95;;;6.32;;
74674;SDS011;63200;48.810;12.352;2023-05-27T04:23:02;11.38;;;5.65;;
74674;SDS011;63200;48.810;12.352;2023-05-27T04:25:27;9.73;;;5.82;;
74674;SDS011;63200;48.810;12.352;2023-05-27T04:27:52;12.80;;;5.88;;
74674;SDS011;63200;48.810;12.352;2023-05-27T04:30:18;10.65;;;5.90;;
74674;SDS011;63200;48.810;12.352;2023-05-27T04:32:43;8.98;;;6.03;;
74674;SDS011;63200;48.810;12.352;2023-05-27T04:35:08;10.13;;;6.00;;
74674;SDS011;63200;48.810;12.352;2023-05-27T04:37:34;16.33;;;6.47;;
74674;SDS011;63200;48.810;12.352;2023-05-27T04:40:01;6.72;;;5.45;;
74674;SDS011;63200;48.810;12.352;2023-05-27T04:42:31;10.63;;;5.90;;
74674;SDS011;63200;48.810;12.352;2023-05-27T04:44:57;13.60;;;6.18;;
74674;SDS011;63200;48.810;12.352;2023-05-27T04:47:23;9.95;;;6.18;;
74674;SDS011;63200;48.810;12.352;2023-05-27T04:49:48;14.02;;;5.82;;
74674;SDS011;63200;48.810;12.352;2023-05-27T04:52:14;13.10;;;5.82;;
74674;SDS011;63200;48.810;12.352;2023-05-27T04:54:39;10.05;;;6.40;;
74674;SDS011;63200;48.810;12.352;2023-05-27T04:57:04;10.65;;;6.00;;
74674;SDS011;63200;48.810;12.352;2023-05-27T04:59:31;14.13;;;6.72;;
74674;SDS011;63200;48.810;12.352;2023-05-27T05:02:16;13.57;;;7.35;;
74674;SDS011;63200;48.810;12.352;2023-05-27T05:04:50;15.05;;;6.80;;
74674;SDS011;63200;48.810;12.352;2023-05-27T05:07:15;12.40;;;6.85;;
74674;SDS011;63200;48.810;12.352;2023-05-27T05:09:41;9.15;;;5.75;;
74674;SDS011;63200;48.810;12.352;2023-05-27T05:12:07;11.20;;;5.93;;
74674;SDS011;63200;48.810;12.352;2023-05-27T05:14:32;14.98;;;6.10;;
74674;SDS011;63200;48.810;12.352;2023-05-27T05:16:58;15.35;;;6.00;;
74674;SDS011;63200;48.810;12.352;2023-05-27T05:19:23;13.13;;;6.07;;
74674;SDS011;63200;48.810;12.352;2023-05-27T05:21:48;13.98;;;6.70;;
74674;SDS011;63200;48.810;12.352;2023-05-27T05:24:14;13.57;;;4.90;;
74674;SDS011;63200;48.810;12.352;2023-05-27T05:26:39;10.38;;;4.45;;
74674;SDS011;63200;48.810;12.352;2023-05-27T05:29:05;11.70;;;4.55;;
74674;SDS011;63200;48.810;12.352;2023-05-27T05:31:30;14.95;;;4.95;;
74674;SDS011;63200;48.810;12.352;2023-05-27T05:33:56;14.70;;;5.20;;
74674;SDS011;63200;48.810;12.352;2023-05-27T05:36:21;16.42;;;5.13;;
74674;SDS011;63200;48.810;12.352;2023-05-27T05:38:46;14.55;;;5.20;;
74674;SDS011;63200;48.810;12.352;2023-05-27T05:41:12;14.05;;;4.40;;
74674;SDS011;63200;48.810;12.352;2023-05-27T05:43:37;13.77;;;4.45;;
74674;SDS011;63200;48.810;12.352;2023-05-27T05:46:03;16.70;;;4.72;;
74674;SDS011;63200;48.810;12.352;2023-05-27T05:48:28;15.27;;;5.03;;
74674;SDS011;63200;48.810;12.352;2023-05-27T05:50:53;10.80;;;3.83;;
74674;SDS011;63200;48.810;12.352;2023-05-27T05:53:19;15.23;;;4.38;;
74674;SDS011;63200;48.810;12.352;2023-05-27T05:55:44;11.38;;;4.18;;
74674;SDS011;63200;48.810;12.352;2023-05-27T05:58:09;12.50;;;4.60;;
74674;SDS011;63200;48.810;12.352;2023-05-27T06:00:35;11.23;;;4.75;;
74674;SDS011;63200;48.810;12.352;2023-05-27T06:03:00;12.15;;;4.50;;
74674;SDS011;63200;48.810;12.352;2023-05-27T06:05:27;18.63;;;5.35;;
74674;SDS011;63200;48.810;12.352;2023-05-27T06:07:52;14.60;;;4.53;;
74674;SDS011;63200;48.810;12.352;2023-05-27T06:10:18;9.98;;;3.95;;
74674;SDS011;63200;48.810;12.352;2023-05-27T06:12:44;14.07;;;4.38;;
74674;SDS011;63200;48.810;12.352;2023-05-27T06:15:09;6.45;;;3.67;;
74674;SDS011;63200;48.810;12.352;2023-05-27T06:17:35;11.02;;;4.47;;
74674;SDS011;63200;48.810;12.352;2023-05-27T06:20:00;10.73;;;4.18;;
74674;SDS011;63200;48.810;12.352;2023-05-27T06:22:26;16.92;;;4.35;;
74674;SDS011;63200;48.810;12.352;2023-05-27T06:24:51;10.63;;;4.03;;
74674;SDS011;63200;48.810;12.352;2023-05-27T06:27:16;16.80;;;4.40;;
74674;SDS011;63200;48.810;12.352;2023-05-27T06:29:41;11.80;;;4.03;;
74674;SDS011;63200;48.810;12.352;2023-05-27T06:32:09;13.43;;;3.72;;
74674;SDS011;63200;48.810;12.352;2023-05-27T06:34:34;11.60;;;3.70;;
74674;SDS011;63200;48.810;12.352;2023-05-27T06:36:59;10.18;;;3.85;;
74674;SDS011;63200;48.810;12.352;2023-05-27T06:39:25;17.25;;;4.50;;
74674;SDS011;63200;48.810;12.352;2023-05-27T06:41:50;10.30;;;3.55;;
74674;SDS011;63200;48.810;12.352;2023-05-27T06:44:15;8.50;;;3.60;;
74674;SDS011;63200;48.810;12.352;2023-05-27T06:46:41;7.55;;;3.60;;
74674;SDS011;63200;48.810;12.352;2023-05-27T06:49:06;9.65;;;3.67;;
74674;SDS011;63200;48.810;12.352;2023-05-27T06:51:31;12.63;;;3.85;;
74674;SDS011;63200;48.810;12.352;2023-05-27T06:53:57;8.80;;;3.50;;
74674;SDS011;63200;48.810;12.352;2023-05-27T06:56:22;10.75;;;3.60;;
74674;SDS011;63200;48.810;12.352;2023-05-27T06:58:48;10.25;;;3.88;;
74674;SDS011;63200;48.810;12.352;2023-05-27T07:01:13;11.95;;;3.92;;
74674;SDS011;63200;48.810;12.352;2023-05-27T07:03:40;8.95;;;3.70;;
74674;SDS011;63200;48.810;12.352;2023-05-27T07:06:06;9.52;;;3.58;;
74674;SDS011;63200;48.810;12.352;2023-05-27T07:08:31;16.13;;;4.07;;
74674;SDS011;63200;48.810;12.352;2023-05-27T07:10:57;11.00;;;3.33;;
74674;SDS011;63200;48.810;12.352;2023-05-27T07:13:22;12.45;;;4.35;;
74674;SDS011;63200;48.810;12.352;2023-05-27T07:15:47;11.43;;;3.78;;
74674;SDS011;63200;48.810;12.352;2023-05-27T07:18:13;11.52;;;3.38;;
74674;SDS011;63200;48.810;12.352;2023-05-27T07:20:38;9.20;;;3.97;;
74674;SDS011;63200;48.810;12.352;2023-05-27T07:23:04;9.65;;;3.45;;
74674;SDS011;63200;48.810;12.352;2023-05-27T07:25:30;13.52;;;3.83;;
74674;SDS011;63200;48.810;12.352;2023-05-27T07:27:55;12.48;;;3.85;;
74674;SDS011;63200;48.810;12.352;2023-05-27T07:30:21;9.77;;;3.83;;
74674;SDS011;63200;48.810;12.352;2023-05-27T07:32:46;14.20;;;3.88;;
74674;SDS011;63200;48.810;12.352;2023-05-27T07:35:11;12.60;;;3.85;;
74674;SDS011;63200;48.810;12.352;2023-05-27T07:37:37;16.80;;;4.50;;
74674;SDS011;63200;48.810;12.352;2023-05-27T07:40:03;13.15;;;4.75;;
74674;SDS011;63200;48.810;12.352;2023-05-27T07:42:29;8.45;;;3.28;;
74674;SDS011;63200;48.810;12.352;2023-05-27T07:44:54;9.63;;;3.50;;
74674;SDS011;63200;48.810;12.352;2023-05-27T07:47:20;11.73;;;4.15;;
74674;SDS011;63200;48.810;12.352;2023-05-27T07:49:45;11.32;;;4.00;;
74674;SDS011;63200;48.810;12.352;2023-05-27T07:52:11;8.50;;;4.00;;
74674;SDS011;63200;48.810;12.352;2023-05-27T07:54:36;9.27;;;3.80;;
74674;SDS011;63200;48.810;12.352;2023-05-27T07:57:02;9.90;;;3.67;;
74674;SDS011;63200;48.810;12.352;2023-05-27T07:59:27;12.23;;;4.28;;
74674;SDS011;63200;48.810;12.352;2023-05-27T08:01:54;10.48;;;3.63;;
74674;SDS011;63200;48.810;12.352;2023-05-27T08:04:19;12.02;;;3.60;;
74674;SDS011;63200;48.810;12.352;2023-05-27T08:06:44;8.93;;;3.05;;
74674;SDS011;63200;48.810;12.352;2023-05-27T08:09:10;13.80;;;4.30;;
74674;SDS011;63200;48.810;12.352;2023-05-27T08:11:35;10.73;;;4.20;;
74674;SDS011;63200;48.810;12.352;2023-05-27T08:14:00;18.13;;;4.30;;
74674;SDS011;63200;48.810;12.352;2023-05-27T08:16:26;9.77;;;3.53;;
74674;SDS011;63200;48.810;12.352;2023-05-27T08:18:51;9.57;;;5.05;;
74674;SDS011;63200;48.810;12.352;2023-05-27T08:21:16;8.18;;;3.83;;
74674;SDS011;63200;48.810;12.352;2023-05-27T08:23:42;13.80;;;3.60;;
74674;SDS011;63200;48.810;12.352;2023-05-27T08:26:07;14.50;;;4.13;;
74674;SDS011;63200;48.810;12.352;2023-05-27T08:28:33;11.73;;;4.30;;
74674;SDS011;63200;48.810;12.352;2023-05-27T08:31:02;13.25;;;4.03;;
74674;SDS011;63200;48.810;12.352;2023-05-27T08:33:30;8.50;;;3.65;;
74674;SDS011;63200;48.810;12.352;2023-05-27T08:35:56;9.88;;;3.50;;
74674;SDS011;63200;48.810;12.352;2023-05-27T08:38:22;7.75;;;3.58;;
74674;SDS011;63200;48.810;12.352;2023-05-27T08:40:47;13.27;;;4.10;;
74674;SDS011;63200;48.810;12.352;2023-05-27T08:43:13;8.77;;;3.78;;
74674;SDS011;63200;48.810;12.352;2023-05-27T08:45:39;8.57;;;3.90;;
74674;SDS011;63200;48.810;12.352;2023-05-27T08:48:09;10.55;;;3.90;;
74674;SDS011;63200;48.810;12.352;2023-05-27T08:50:35;13.05;;;4.32;;
74674;SDS011;63200;48.810;12.352;2023-05-27T08:53:01;12.57;;;4.03;;
74674;SDS011;63200;48.810;12.352;2023-05-27T08:55:27;7.72;;;3.80;;
74674;SDS011;63200;48.810;12.352;2023-05-27T08:57:56;12.25;;;4.18;;
74674;SDS011;63200;48.810;12.352;2023-05-27T09:00:22;6.38;;;3.22;;
74674;SDS011;63200;48.810;12.352;2023-05-27T09:02:48;13.43;;;3.85;;
74674;SDS011;63200;48.810;12.352;2023-05-27T09:05:14;10.45;;;4.28;;
74674;SDS011;63200;48.810;12.352;2023-05-27T09:07:41;9.25;;;3.90;;
74674;SDS011;63200;48.810;12.352;2023-05-27T09:10:06;7.63;;;3.33;;
74674;SDS011;63200;48.810;12.352;2023-05-27T09:12:32;10.00;;;3.83;;
74674;SDS011;63200;48.810;12.352;2023-05-27T09:14:58;13.23;;;3.72;;
74674;SDS011;63200;48.810;12.352;2023-05-27T09:17:24;11.07;;;3.42;;
74674;SDS011;63200;48.810;12.352;2023-05-27T09:19:50;8.13;;;3.85;;
74674;SDS011;63200;48.810;12.352;2023-05-27T09:22:22;13.38;;;3.83;;
74674;SDS011;63200;48.810;12.352;2023-05-27T09:24:55;9.38;;;4.10;;
74674;SDS011;63200;48.810;12.352;2023-05-27T09:27:27;10.32;;;3.95;;
74674;SDS011;63200;48.810;12.352;2023-05-27T09:29:54;8.15;;;3.78;;
74674;SDS011;63200;48.810;12.352;2023-05-27T09:32:26;12.77;;;4.00;;
74674;SDS011;63200;48.810;12.352;2023-05-27T09:34:55;7.70;;;3.83;;
74674;SDS011;63200;48.810;12.352;2023-05-27T09:37:24;13.93;;;4.55;;
74674;SDS011;63200;48.810;12.352;2023-05-27T09:39:53;14.15;;;3.55;;
74674;SDS011;63200;48.810;12.352;2023-05-27T09:42:18;10.05;;;4.10;;
74674;SDS011;63200;48.810;12.352;2023-05-27T09:44:45;8.93;;;3.90;;
74674;SDS011;63200;48.810;12.352;2023-05-27T09:47:13;11.13;;;3.72;;
74674;SDS011;63200;48.810;12.352;2023-05-27T09:49:41;9.52;;;3.40;;
74674;SDS011;63200;48.810;12.352;2023-05-27T09:52:09;7.45;;;3.40;;
74674;SDS011;63200;48.810;12.352;2023-05-27T09:54:35;7.00;;;3.58;;
74674;SDS011;63200;48.810;12.352;2023-05-27T09:57:02;9.93;;;3.72;;
74674;SDS011;63200;48.810;12.352;2023-05-27T09:59:30;7.50;;;3.70;;
74674;SDS011;63200;48.810;12.352;2023-05-27T10:01:56;9.68;;;3.80;;
74674;SDS011;63200;48.810;12.352;2023-05-27T10:04:25;8.85;;;3.50;;
74674;SDS011;63200;48.810;12.352;2023-05-27T10:06:50;8.90;;;3.90;;
74674;SDS011;63200;48.810;12.352;2023-05-27T10:09:17;9.77;;;3.92;;
74674;SDS011;63200;48.810;12.352;2023-05-27T10:11:43;10.82;;;3.70;;
74674;SDS011;63200;48.810;12.352;2023-05-27T10:14:09;9.90;;;3.97;;
74674;SDS011;63200;48.810;12.352;2023-05-27T10:16:35;12.07;;;3.83;;
74674;SDS011;63200;48.810;12.352;2023-05-27T10:19:01;11.00;;;3.55;;
74674;SDS011;63200;48.810;12.352;2023-05-27T10:21:27;9.75;;;4.03;;
74674;SDS011;63200;48.810;12.352;2023-05-27T10:23:57;8.32;;;3.88;;
74674;SDS011;63200;48.810;12.352;2023-05-27T10:26:36;14.43;;;4.03;;
74674;SDS011;63200;48.810;12.352;2023-05-27T10:29:06;9.38;;;3.88;;
74674;SDS011;63200;48.810;12.352;2023-05-27T10:31:33;10.75;;;3.53;;
74674;SDS011;63200;48.810;12.352;2023-05-27T10:33:59;10.88;;;3.83;;
74674;SDS011;63200;48.810;12.352;2023-05-27T10:36:25;10.63;;;3.95;;
74674;SDS011;63200;48.810;12.352;2023-05-27T10:38:54;14.43;;;3.80;;
74674;SDS011;63200;48.810;12.352;2023-05-27T10:41:21;12.30;;;4.10;;
74674;SDS011;63200;48.810;12.352;2023-05-27T10:43:54;9.30;;;3.60;;
74674;SDS011;63200;48.810;12.352;2023-05-27T10:46:23;9.23;;;3.50;;
74674;SDS011;63200;48.810;12.352;2023-05-27T10:48:48;11.73;;;3.83;;
74674;SDS011;63200;48.810;12.352;2023-05-27T10:51:14;9.10;;;3.92;;
74674;SDS011;63200;48.810;12.352;2023-05-27T10:53:39;15.20;;;3.67;;
74674;SDS011;63200;48.810;12.352;2023-05-27T10:56:05;8.85;;;3.88;;
74674;SDS011;63200;48.810;12.352;2023-05-27T10:58:35;10.52;;;3.67;;
74674;SDS011;63200;48.810;12.352;2023-05-27T11:01:11;11.90;;;4.28;;
74674;SDS011;63200;48.810;12.352;2023-05-27T11:03:42;11.68;;;3.65;;
74674;SDS011;63200;48.810;12.352;2023-05-27T11:06:09;9.23;;;3.72;;
74674;SDS011;63200;48.810;12.352;2023-05-27T11:08:35;11.18;;;3.65;;
74674;SDS011;63200;48.810;12.352;2023-05-27T11:11:03;9.25;;;3.50;;
74674;SDS011;63200;48.810;12.352;2023-05-27T11:13:41;6.95;;;3.60;;
74674;SDS011;63200;48.810;12.352;2023-05-27T11:16:07;8.15;;;3.90;;
74674;SDS011;63200;48.810;12.352;2023-05-27T11:18:40;10.23;;;4.20;;
74674;SDS011;63200;48.810;12.352;2023-05-27T11:21:07;12.07;;;4.20;;
74674;SDS011;63200;48.810;12.352;2023-05-27T11:23:38;10.10;;;3.90;;
74674;SDS011;63200;48.810;12.352;2023-05-27T11:26:26;7.93;;;3.33;;
74674;SDS011;63200;48.810;12.352;2023-05-27T11:28:52;10.35;;;3.83;;
74674;SDS011;63200;48.810;12.352;2023-05-27T11:31:21;10.95;;;4.05;;
74674;SDS011;63200;48.810;12.352;2023-05-27T11:33:51;8.15;;;3.83;;
74674;SDS011;63200;48.810;12.352;2023-05-27T11:36:16;7.35;;;3.60;;
74674;SDS011;63200;48.810;12.352;2023-05-27T11:41:22;10.60;;;3.65;;
74674;SDS011;63200;48.810;12.352;2023-05-27T11:43:51;8.45;;;3.90;;
74674;SDS011;63200;48.810;12.352;2023-05-27T11:46:21;7.18;;;3.33;;
74674;SDS011;63200;48.810;12.352;2023-05-27T11:48:47;7.00;;;3.17;;
74674;SDS011;63200;48.810;12.352;2023-05-27T11:51:13;9.55;;;3.75;;
74674;SDS011;63200;48.810;12.352;2023-05-27T11:53:48;7.72;;;3.42;;
74674;SDS011;63200;48.810;12.352;2023-05-27T11:56:13;10.68;;;3.60;;
74674;SDS011;63200;48.810;12.352;2023-05-27T11:58:40;8.95;;;3.63;;
74674;SDS011;63200;48.810;12.352;2023-05-27T12:01:06;6.65;;;3.47;;
74674;SDS011;63200;48.810;12.352;2023-05-27T12:03:34;9.20;;;3.22;;
74674;SDS011;63200;48.810;12.352;2023-05-27T12:06:00;6.38;;;3.20;;
74674;SDS011;63200;48.810;12.352;2023-05-27T12:08:26;6.40;;;3.10;;
74674;SDS011;63200;48.810;12.352;2023-05-27T12:10:52;8.23;;;3.42;;
74674;SDS011;63200;48.810;12.352;2023-05-27T12:13:19;6.78;;;3.67;;
74674;SDS011;63200;48.810;12.352;2023-05-27T12:15:46;8.18;;;3.40;;
74674;SDS011;63200;48.810;12.352;2023-05-27T12:18:15;8.95;;;3.38;;
74674;SDS011;63200;48.810;12.352;2023-05-27T12:20:42;8.00;;;3.55;;
74674;SDS011;63200;48.810;12.352;2023-05-27T12:23:09;7.22;;;3.05;;
74674;SDS011;63200;48.810;12.352;2023-05-27T12:25:35;6.30;;;3.47;;
74674;SDS011;63200;48.810;12.352;2023-05-27T12:28:00;7.18;;;3.80;;
74674;SDS011;63200;48.810;12.352;2023-05-27T12:30:26;8.27;;;3.03;;
74674;SDS011;63200;48.810;12.352;2023-05-27T12:32:51;8.30;;;3.67;;
74674;SDS011;63200;48.810;12.352;2023-05-27T12:35:16;7.15;;;3.38;;
74674;SDS011;63200;48.810;12.352;2023-05-27T12:37:42;5.22;;;3.17;;
74674;SDS011;63200;48.810;12.352;2023-05-27T12:40:07;8.23;;;3.55;;
74674;SDS011;63200;48.810;12.352;2023-05-27T12:42:37;7.45;;;3.67;;
74674;SDS011;63200;48.810;12.352;2023-05-27T12:45:03;9.00;;;3.47;;
74674;SDS011;63200;48.810;12.352;2023-05-27T12:47:29;10.43;;;3.60;;
74674;SDS011;63200;48.810;12.352;2023-05-27T12:49:54;8.02;;;3.30;;
74674;SDS011;63200;48.810;12.352;2023-05-27T12:52:20;11.50;;;3.35;;
74674;SDS011;63200;48.810;12.352;2023-05-27T12:54:45;9.18;;;3.92;;
74674;SDS011;63200;48.810;12.352;2023-05-27T12:57:10;7.35;;;3.80;;
74674;SDS011;63200;48.810;12.352;2023-05-27T12:59:36;6.53;;;3.40;;
74674;SDS011;63200;48.810;12.352;2023-05-27T13:02:01;5.63;;;3.42;;
74674;SDS011;63200;48.810;12.352;2023-05-27T13:04:26;7.20;;;3.20;;
74674;SDS011;63200;48.810;12.352;2023-05-27T13:06:52;7.95;;;4.10;;
74674;SDS011;63200;48.810;12.352;2023-05-27T13:09:17;8.30;;;3.83;;
74674;SDS011;63200;48.810;12.352;2023-05-27T13:11:43;7.50;;;3.70;;
74674;SDS011;63200;48.810;12.352;2023-05-27T13:14:09;8.90;;;3.30;;
74674;SDS011;63200;48.810;12.352;2023-05-27T13:16:34;17.73;;;4.00;;
74674;SDS011;63200;48.810;12.352;2023-05-27T13:19:00;7.57;;;3.70;;
74674;SDS011;63200;48.810;12.352;2023-05-27T13:21:25;6.10;;;3.50;;
74674;SDS011;63200;48.810;12.352;2023-05-27T13:23:51;10.07;;;4.05;;
74674;SDS011;63200;48.810;12.352;2023-05-27T13:26:17;8.55;;;3.17;;
74674;SDS011;63200;48.810;12.352;2023-05-27T13:28:43;6.80;;;3.40;;
74674;SDS011;63200;48.810;12.352;2023-05-27T13:31:08;5.63;;;3.17;;
74674;SDS011;63200;48.810;12.352;2023-05-27T13:33:33;7.32;;;3.72;;
74674;SDS011;63200;48.810;12.352;2023-05-27T13:35:59;7.05;;;3.42;;
74674;SDS011;63200;48.810;12.352;2023-05-27T13:38:24;7.78;;;3.15;;
74674;SDS011;63200;48.810;12.352;2023-05-27T13:40:49;8.20;;;3.20;;
74674;SDS011;63200;48.810;12.352;2023-05-27T13:43:15;4.00;;;3.00;;
74674;SDS011;63200;48.810;12.352;2023-05-27T13:45:41;5.47;;;3.17;;
74674;SDS011;63200;48.810;12.352;2023-05-27T13:48:07;8.82;;;3.70;;
74674;SDS011;63200;48.810;12.352;2023-05-27T13:50:33;7.43;;;3.55;;
74674;SDS011;63200;48.810;12.352;2023-05-27T13:52:59;6.63;;;3.70;;
74674;SDS011;63200;48.810;12.352;2023-05-27T13:55:25;7.10;;;3.67;;
74674;SDS011;63200;48.810;12.352;2023-05-27T13:57:50;5.00;;;3.20;;
74674;SDS011;63200;48.810;12.352;2023-05-27T14:00:15;8.43;;;3.33;;
74674;SDS011;63200;48.810;12.352;2023-05-27T14:02:41;7.25;;;3.58;;
74674;SDS011;63200;48.810;12.352;2023-05-27T14:05:07;8.90;;;3.47;;
74674;SDS011;63200;48.810;12.352;2023-05-27T14:07:32;7.38;;;3.83;;
74674;SDS011;63200;48.810;12.352;2023-05-27T14:10:03;7.30;;;2.95;;
74674;SDS011;63200;48.810;12.352;2023-05-27T14:12:29;6.40;;;3.55;;
74674;SDS011;63200;48.810;12.352;2023-05-27T14:14:54;7.07;;;3.40;;
74674;SDS011;63200;48.810;12.352;2023-05-27T14:17:20;8.68;;;3.33;;
74674;SDS011;63200;48.810;12.352;2023-05-27T14:19:45;7.25;;;3.28;;
74674;SDS011;63200;48.810;12.352;2023-05-27T14:22:10;8.38;;;3.83;;
74674;SDS011;63200;48.810;12.352;2023-05-27T14:24:36;6.13;;;3.38;;
74674;SDS011;63200;48.810;12.352;2023-05-27T14:27:01;8.98;;;3.42;;
74674;SDS011;63200;48.810;12.352;2023-05-27T14:29:28;7.68;;;3.40;;